sensor_id;sensor_type;location;lat;lon;timestamp;pressure;altitude;pressure_sealevel;temperature;humidity
59329;BME280;45100;46.926;7.452;2023-10-19T00:01:57;93987.77;;;11.08;100.00
59329;BME280;45100;46.926;7.452;2023-10-19T00:04:27;93989.13;;;11.10;100.00
59329;BME280;45100;46.926;7.452;2023-10-19T00:09:38;93952.55;;;11.12;100.00
59329;BME280;45100;46.926;7.452;2023-10-19T00:11:59;93961.27;;;11.11;100.00
59329;BME280;45100;46.926;7.452;2023-10-19T00:14:32;93968.44;;;11.11;100.00
59329;BME280;45100;46.926;7.452;2023-10-19T00:17:06;93971.72;;;11.12;100.00
59329;BME280;45100;46.926;7.452;2023-10-19T00:19:37;93978.08;;;11.11;100.00
59329;BME280;45100;46.926;7.452;2023-10-19T00:22:09;93970.81;;;11.10;100.00
59329;BME280;45100;46.926;7.452;2023-10-19T00:24:32;93967.34;;;11.09;100.00
59329;BME280;45100;46.926;7.452;2023-10-19T00:32:30;93947.89;;;11.11;100.00
59329;BME280;45100;46.926;7.452;2023-10-19T00:35:09;93948.77;;;11.12;100.00
59329;BME280;45100;46.926;7.452;2023-10-19T00:37:33;93954.38;;;11.12;100.00
59329;BME280;45100;46.926;7.452;2023-10-19T00:40:11;93955.28;;;11.11;100.00
59329;BME280;45100;46.926;7.452;2023-10-19T00:42:32;93952.92;;;11.10;100.00
59329;BME280;45100;46.926;7.452;2023-10-19T00:45:07;93946.83;;;11.10;100.00
59329;BME280;45100;46.926;7.452;2023-10-19T00:47:43;93947.36;;;11.09;100.00
59329;BME280;45100;46.926;7.452;2023-10-19T00:50:07;93947.38;;;11.10;100.00
59329;BME280;45100;46.926;7.452;2023-10-19T00:52:32;93942.84;;;11.09;100.00
59329;BME280;45100;46.926;7.452;2023-10-19T00:55:08;93939.98;;;11.09;100.00
59329;BME280;45100;46.926;7.452;2023-10-19T00:57:35;93939.77;;;11.10;100.00
59329;BME280;45100;46.926;7.452;2023-10-19T01:00:13;93933.95;;;11.09;100.00
59329;BME280;45100;46.926;7.452;2023-10-19T01:02:35;93936.27;;;11.09;100.00
59329;BME280;45100;46.926;7.452;2023-10-19T01:05:07;93933.62;;;11.07;100.00
59329;BME280;45100;46.926;7.452;2023-10-19T01:07:39;93933.23;;;11.03;100.00
59329;BME280;45100;46.926;7.452;2023-10-19T01:10:07;93934.56;;;11.01;100.00
59329;BME280;45100;46.926;7.452;2023-10-19T01:12:44;93929.86;;;10.98;100.00
59329;BME280;45100;46.926;7.452;2023-10-19T01:15:18;93929.28;;;10.98;100.00
59329;BME280;45100;46.926;7.452;2023-10-19T01:17:42;93920.16;;;10.96;100.00
59329;BME280;45100;46.926;7.452;2023-10-19T01:20:28;93918.34;;;10.98;100.00
59329;BME280;45100;46.926;7.452;2023-10-19T01:23:00;93914.88;;;10.99;100.00
59329;BME280;45100;46.926;7.452;2023-10-19T01:25:12;93915.50;;;11.01;100.00
59329;BME280;45100;46.926;7.452;2023-10-19T01:27:41;93909.14;;;11.01;100.00
59329;BME280;45100;46.926;7.452;2023-10-19T01:30:14;93900.42;;;11.03;100.00
59329;BME280;45100;46.926;7.452;2023-10-19T01:32:43;93903.48;;;11.03;100.00
59329;BME280;45100;46.926;7.452;2023-10-19T01:35:12;93899.66;;;11.04;100.00
59329;BME280;45100;46.926;7.452;2023-10-19T01:37:43;93897.78;;;11.04;100.00
59329;BME280;45100;46.926;7.452;2023-10-19T01:40:21;93891.52;;;11.03;100.00
59329;BME280;45100;46.926;7.452;2023-10-19T01:42:44;93885.31;;;11.02;100.00
59329;BME280;45100;46.926;7.452;2023-10-19T01:45:15;93890.97;;;11.02;100.00
59329;BME280;45100;46.926;7.452;2023-10-19T01:47:45;93893.47;;;11.01;100.00
59329;BME280;45100;46.926;7.452;2023-10-19T01:50:21;93892.05;;;10.99;100.00
59329;BME280;45100;46.926;7.452;2023-10-19T01:52:46;93892.86;;;10.97;100.00
59329;BME280;45100;46.926;7.452;2023-10-19T01:57:54;93897.17;;;10.98;100.00
59329;BME280;45100;46.926;7.452;2023-10-19T02:00:24;93897.06;;;10.98;100.00
59329;BME280;45100;46.926;7.452;2023-10-19T02:02:56;93896.88;;;10.98;100.00
59329;BME280;45100;46.926;7.452;2023-10-19T02:05:36;93893.39;;;10.99;100.00
59329;BME280;45100;46.926;7.452;2023-10-19T02:07:56;93885.09;;;10.98;100.00
59329;BME280;45100;46.926;7.452;2023-10-19T02:10:28;93884.44;;;10.98;100.00
59329;BME280;45100;46.926;7.452;2023-10-19T02:12:58;93882.30;;;10.99;100.00
59329;BME280;45100;46.926;7.452;2023-10-19T02:15:28;93882.78;;;11.00;100.00
59329;BME280;45100;46.926;7.452;2023-10-19T02:20:33;93877.30;;;11.01;100.00
59329;BME280;45100;46.926;7.452;2023-10-19T02:23:04;93877.58;;;11.01;100.00
59329;BME280;45100;46.926;7.452;2023-10-19T02:25:37;93869.48;;;11.00;100.00
59329;BME280;45100;46.926;7.452;2023-10-19T02:28:06;93873.20;;;11.00;100.00
59329;BME280;45100;46.926;7.452;2023-10-19T02:30:35;93866.68;;;11.00;100.00
59329;BME280;45100;46.926;7.452;2023-10-19T02:33:07;93865.92;;;11.00;100.00
59329;BME280;45100;46.926;7.452;2023-10-19T02:35:38;93860.97;;;11.00;100.00
59329;BME280;45100;46.926;7.452;2023-10-19T02:38:05;93859.78;;;10.99;100.00
59329;BME280;45100;46.926;7.452;2023-10-19T02:40:38;93861.88;;;10.99;100.00
59329;BME280;45100;46.926;7.452;2023-10-19T02:43:05;93856.66;;;11.00;100.00
59329;BME280;45100;46.926;7.452;2023-10-19T02:45:37;93854.34;;;11.00;100.00
59329;BME280;45100;46.926;7.452;2023-10-19T02:48:13;93852.62;;;11.00;100.00
59329;BME280;45100;46.926;7.452;2023-10-19T02:50:37;93845.61;;;11.00;100.00
59329;BME280;45100;46.926;7.452;2023-10-19T02:53:08;93846.30;;;10.98;100.00
59329;BME280;45100;46.926;7.452;2023-10-19T02:55:41;93844.31;;;10.96;100.00
59329;BME280;45100;46.926;7.452;2023-10-19T02:58:09;93844.80;;;10.95;100.00
59329;BME280;45100;46.926;7.452;2023-10-19T03:03:13;93836.49;;;10.91;100.00
59329;BME280;45100;46.926;7.452;2023-10-19T03:05:43;93834.44;;;10.88;100.00
59329;BME280;45100;46.926;7.452;2023-10-19T03:10:59;93828.65;;;10.84;100.00
59329;BME280;45100;46.926;7.452;2023-10-19T03:13:21;93825.80;;;10.84;100.00
59329;BME280;45100;46.926;7.452;2023-10-19T03:15:50;93821.34;;;10.83;100.00
59329;BME280;45100;46.926;7.452;2023-10-19T03:18:21;93818.91;;;10.82;100.00
59329;BME280;45100;46.926;7.452;2023-10-19T03:20:52;93819.05;;;10.81;100.00
59329;BME280;45100;46.926;7.452;2023-10-19T03:23:22;93818.43;;;10.80;100.00
59329;BME280;45100;46.926;7.452;2023-10-19T03:26:04;93815.83;;;10.78;100.00
59329;BME280;45100;46.926;7.452;2023-10-19T03:28:27;93816.10;;;10.77;100.00
59329;BME280;45100;46.926;7.452;2023-10-19T03:30:55;93813.56;;;10.76;100.00
59329;BME280;45100;46.926;7.452;2023-10-19T03:36:04;93806.12;;;10.75;100.00
59329;BME280;45100;46.926;7.452;2023-10-19T03:38:37;93803.53;;;10.74;100.00
59329;BME280;45100;46.926;7.452;2023-10-19T03:41:08;93798.91;;;10.75;100.00
59329;BME280;45100;46.926;7.452;2023-10-19T03:43:34;93796.23;;;10.76;100.00
59329;BME280;45100;46.926;7.452;2023-10-19T03:46:10;93800.64;;;10.76;100.00
59329;BME280;45100;46.926;7.452;2023-10-19T03:48:40;93794.17;;;10.78;100.00
59329;BME280;45100;46.926;7.452;2023-10-19T03:51:06;93795.73;;;10.78;100.00
59329;BME280;45100;46.926;7.452;2023-10-19T03:53:37;93793.42;;;10.78;100.00
59329;BME280;45100;46.926;7.452;2023-10-19T03:56:12;93788.41;;;10.76;100.00
59329;BME280;45100;46.926;7.452;2023-10-19T03:58:40;93780.59;;;10.74;100.00
59329;BME280;45100;46.926;7.452;2023-10-19T04:01:08;93773.33;;;10.73;100.00
59329;BME280;45100;46.926;7.452;2023-10-19T04:03:37;93761.86;;;10.73;100.00
59329;BME280;45100;46.926;7.452;2023-10-19T04:06:15;93753.71;;;10.71;100.00
59329;BME280;45100;46.926;7.452;2023-10-19T04:08:39;93743.59;;;10.69;100.00
59329;BME280;45100;46.926;7.452;2023-10-19T04:11:23;93733.69;;;10.67;100.00
59329;BME280;45100;46.926;7.452;2023-10-19T04:16:11;93730.19;;;10.62;100.00
59329;BME280;45100;46.926;7.452;2023-10-19T04:18:45;93726.02;;;10.60;100.00
59329;BME280;45100;46.926;7.452;2023-10-19T04:21:13;93721.44;;;10.59;100.00
59329;BME280;45100;46.926;7.452;2023-10-19T04:23:44;93719.19;;;10.58;100.00
59329;BME280;45100;46.926;7.452;2023-10-19T04:26:19;93714.05;;;10.56;100.00
59329;BME280;45100;46.926;7.452;2023-10-19T04:28:50;93713.86;;;10.55;100.00
59329;BME280;45100;46.926;7.452;2023-10-19T04:31:18;93713.69;;;10.54;100.00
59329;BME280;45100;46.926;7.452;2023-10-19T04:33:48;93722.84;;;10.55;100.00
59329;BME280;45100;46.926;7.452;2023-10-19T04:36:16;93721.12;;;10.55;100.00
59329;BME280;45100;46.926;7.452;2023-10-19T04:38:46;93719.02;;;10.57;100.00
59329;BME280;45100;46.926;7.452;2023-10-19T04:41:16;93710.41;;;10.59;100.00
59329;BME280;45100;46.926;7.452;2023-10-19T04:43:50;93706.66;;;10.62;100.00
59329;BME280;45100;46.926;7.452;2023-10-19T04:46:19;93710.80;;;10.63;100.00
59329;BME280;45100;46.926;7.452;2023-10-19T04:48:50;93711.17;;;10.63;100.00
59329;BME280;45100;46.926;7.452;2023-10-19T04:51:19;93705.83;;;10.62;100.00
59329;BME280;45100;46.926;7.452;2023-10-19T04:53:50;93700.08;;;10.63;100.00
59329;BME280;45100;46.926;7.452;2023-10-19T04:56:21;93699.70;;;10.62;100.00
59329;BME280;45100;46.926;7.452;2023-10-19T04:58:51;93691.26;;;10.62;100.00
59329;BME280;45100;46.926;7.452;2023-10-19T05:01:22;93691.52;;;10.63;100.00
59329;BME280;45100;46.926;7.452;2023-10-19T05:03:53;93691.64;;;10.65;100.00
59329;BME280;45100;46.926;7.452;2023-10-19T05:06:24;93682.16;;;10.66;100.00
59329;BME280;45100;46.926;7.452;2023-10-19T05:08:55;93679.37;;;10.68;100.00
59329;BME280;45100;46.926;7.452;2023-10-19T05:11:25;93678.17;;;10.69;100.00
59329;BME280;45100;46.926;7.452;2023-10-19T05:13:56;93678.06;;;10.72;100.00
59329;BME280;45100;46.926;7.452;2023-10-19T05:16:27;93685.56;;;10.73;100.00
59329;BME280;45100;46.926;7.452;2023-10-19T05:21:31;93684.27;;;10.75;100.00
59329;BME280;45100;46.926;7.452;2023-10-19T05:24:04;93684.70;;;10.76;100.00
59329;BME280;45100;46.926;7.452;2023-10-19T05:26:33;93686.16;;;10.77;100.00
59329;BME280;45100;46.926;7.452;2023-10-19T05:29:01;93686.42;;;10.78;100.00
59329;BME280;45100;46.926;7.452;2023-10-19T05:31:32;93684.91;;;10.78;100.00
59329;BME280;45100;46.926;7.452;2023-10-19T05:34:04;93680.12;;;10.78;100.00
59329;BME280;45100;46.926;7.452;2023-10-19T05:36:33;93681.09;;;10.79;100.00
59329;BME280;45100;46.926;7.452;2023-10-19T05:39:08;93678.60;;;10.80;100.00
59329;BME280;45100;46.926;7.452;2023-10-19T05:41:35;93674.79;;;10.81;100.00
59329;BME280;45100;46.926;7.452;2023-10-19T05:44:07;93677.92;;;10.82;100.00
59329;BME280;45100;46.926;7.452;2023-10-19T05:46:39;93669.77;;;10.83;100.00
59329;BME280;45100;46.926;7.452;2023-10-19T05:49:09;93672.04;;;10.84;100.00
59329;BME280;45100;46.926;7.452;2023-10-19T05:51:39;93664.12;;;10.84;100.00
59329;BME280;45100;46.926;7.452;2023-10-19T05:54:09;93660.84;;;10.85;100.00
59329;BME280;45100;46.926;7.452;2023-10-19T05:56:38;93663.37;;;10.84;100.00
59329;BME280;45100;46.926;7.452;2023-10-19T05:59:11;93665.58;;;10.83;100.00
59329;BME280;45100;46.926;7.452;2023-10-19T06:01:40;93667.84;;;10.83;100.00
59329;BME280;45100;46.926;7.452;2023-10-19T06:04:13;93666.66;;;10.84;100.00
59329;BME280;45100;46.926;7.452;2023-10-19T06:06:41;93674.16;;;10.86;100.00
59329;BME280;45100;46.926;7.452;2023-10-19T06:09:12;93678.34;;;10.87;100.00
59329;BME280;45100;46.926;7.452;2023-10-19T06:11:46;93679.42;;;10.87;100.00
59329;BME280;45100;46.926;7.452;2023-10-19T06:14:12;93685.72;;;10.89;100.00
59329;BME280;45100;46.926;7.452;2023-10-19T06:16:43;93682.94;;;10.92;100.00
59329;BME280;45100;46.926;7.452;2023-10-19T06:19:15;93676.85;;;10.92;100.00
59329;BME280;45100;46.926;7.452;2023-10-19T06:21:45;93681.41;;;10.93;100.00
59329;BME280;45100;46.926;7.452;2023-10-19T06:24:16;93679.75;;;10.94;100.00
59329;BME280;45100;46.926;7.452;2023-10-19T06:26:47;93680.34;;;10.94;100.00
59329;BME280;45100;46.926;7.452;2023-10-19T06:29:17;93683.69;;;10.94;100.00
59329;BME280;45100;46.926;7.452;2023-10-19T06:31:47;93686.80;;;10.96;100.00
59329;BME280;45100;46.926;7.452;2023-10-19T06:34:19;93680.66;;;10.96;100.00
59329;BME280;45100;46.926;7.452;2023-10-19T06:36:52;93675.48;;;10.98;100.00
59329;BME280;45100;46.926;7.452;2023-10-19T06:39:22;93666.98;;;11.00;100.00
59329;BME280;45100;46.926;7.452;2023-10-19T06:41:50;93659.75;;;11.02;100.00
59329;BME280;45100;46.926;7.452;2023-10-19T06:44:23;93626.62;;;11.05;100.00
59329;BME280;45100;46.926;7.452;2023-10-19T06:46:52;93625.72;;;11.07;100.00
59329;BME280;45100;46.926;7.452;2023-10-19T06:49:23;93626.45;;;11.08;100.00
59329;BME280;45100;46.926;7.452;2023-10-19T06:51:54;93622.73;;;11.08;100.00
59329;BME280;45100;46.926;7.452;2023-10-19T06:54:23;93625.48;;;11.08;100.00
59329;BME280;45100;46.926;7.452;2023-10-19T06:56:54;93621.68;;;11.07;100.00
59329;BME280;45100;46.926;7.452;2023-10-19T06:59:25;93614.52;;;11.07;100.00
59329;BME280;45100;46.926;7.452;2023-10-19T07:04:29;93620.05;;;11.09;100.00
59329;BME280;45100;46.926;7.452;2023-10-19T07:07:01;93621.23;;;11.09;100.00
59329;BME280;45100;46.926;7.452;2023-10-19T07:09:30;93623.44;;;11.11;100.00
59329;BME280;45100;46.926;7.452;2023-10-19T07:12:01;93620.31;;;11.12;100.00
59329;BME280;45100;46.926;7.452;2023-10-19T07:14:32;93624.83;;;11.15;100.00
59329;BME280;45100;46.926;7.452;2023-10-19T07:17:02;93622.40;;;11.17;100.00
59329;BME280;45100;46.926;7.452;2023-10-19T07:19:32;93620.80;;;11.19;100.00
59329;BME280;45100;46.926;7.452;2023-10-19T07:24:39;93609.41;;;11.25;100.00
59329;BME280;45100;46.926;7.452;2023-10-19T07:27:18;93609.02;;;11.30;100.00
59329;BME280;45100;46.926;7.452;2023-10-19T07:32:17;93621.16;;;11.42;100.00
59329;BME280;45100;46.926;7.452;2023-10-19T07:34:47;93615.91;;;11.48;100.00
59329;BME280;45100;46.926;7.452;2023-10-19T07:37:17;93612.02;;;11.54;100.00
59329;BME280;45100;46.926;7.452;2023-10-19T07:39:48;93616.62;;;11.60;100.00
59329;BME280;45100;46.926;7.452;2023-10-19T07:42:18;93611.55;;;11.65;100.00
59329;BME280;45100;46.926;7.452;2023-10-19T07:44:49;93606.83;;;11.68;100.00
59329;BME280;45100;46.926;7.452;2023-10-19T07:49:57;93605.97;;;11.73;100.00
59329;BME280;45100;46.926;7.452;2023-10-19T07:52:24;93606.27;;;11.75;100.00
59329;BME280;45100;46.926;7.452;2023-10-19T07:54:54;93596.89;;;11.76;100.00
59329;BME280;45100;46.926;7.452;2023-10-19T07:57:25;93598.89;;;11.77;100.00
59329;BME280;45100;46.926;7.452;2023-10-19T07:59:57;93591.86;;;11.78;100.00
59329;BME280;45100;46.926;7.452;2023-10-19T08:02:25;93592.38;;;11.81;100.00
59329;BME280;45100;46.926;7.452;2023-10-19T08:04:56;93589.33;;;11.85;100.00
59329;BME280;45100;46.926;7.452;2023-10-19T08:07:29;93584.70;;;11.91;100.00
59329;BME280;45100;46.926;7.452;2023-10-19T08:09:59;93577.98;;;11.97;100.00
59329;BME280;45100;46.926;7.452;2023-10-19T08:12:28;93576.88;;;12.02;100.00
59329;BME280;45100;46.926;7.452;2023-10-19T08:14:58;93580.18;;;12.08;100.00
59329;BME280;45100;46.926;7.452;2023-10-19T08:17:29;93577.58;;;12.12;100.00
59329;BME280;45100;46.926;7.452;2023-10-19T08:22:32;93557.24;;;12.18;100.00
59329;BME280;45100;46.926;7.452;2023-10-19T08:25:02;93557.98;;;12.21;100.00
59329;BME280;45100;46.926;7.452;2023-10-19T08:27:34;93553.42;;;12.24;100.00
59329;BME280;45100;46.926;7.452;2023-10-19T08:30:05;93557.27;;;12.31;100.00
59329;BME280;45100;46.926;7.452;2023-10-19T08:32:33;93561.20;;;12.40;100.00
59329;BME280;45100;46.926;7.452;2023-10-19T08:35:04;93557.34;;;12.48;100.00
59329;BME280;45100;46.926;7.452;2023-10-19T08:37:34;93551.04;;;12.59;100.00
59329;BME280;45100;46.926;7.452;2023-10-19T08:40:10;93550.64;;;12.70;100.00
59329;BME280;45100;46.926;7.452;2023-10-19T08:45:10;93545.50;;;12.88;100.00
59329;BME280;45100;46.926;7.452;2023-10-19T08:47:42;93547.66;;;12.94;100.00
59329;BME280;45100;46.926;7.452;2023-10-19T08:50:13;93542.20;;;13.00;100.00
59329;BME280;45100;46.926;7.452;2023-10-19T08:52:42;93536.08;;;13.07;100.00
59329;BME280;45100;46.926;7.452;2023-10-19T08:55:13;93539.25;;;13.17;100.00
59329;BME280;45100;46.926;7.452;2023-10-19T08:57:44;93538.67;;;13.25;100.00
59329;BME280;45100;46.926;7.452;2023-10-19T09:00:14;93536.36;;;13.33;100.00
59329;BME280;45100;46.926;7.452;2023-10-19T09:02:43;93533.25;;;13.40;100.00
59329;BME280;45100;46.926;7.452;2023-10-19T09:05:24;93535.08;;;13.45;100.00
59329;BME280;45100;46.926;7.452;2023-10-19T09:07:48;93541.16;;;13.49;100.00
59329;BME280;45100;46.926;7.452;2023-10-19T09:10:16;93540.49;;;13.53;100.00
59329;BME280;45100;46.926;7.452;2023-10-19T09:12:59;93538.02;;;13.58;100.00
59329;BME280;45100;46.926;7.452;2023-10-19T09:15:22;93536.93;;;13.66;100.00
59329;BME280;45100;46.926;7.452;2023-10-19T09:17:50;93531.86;;;13.70;100.00
59329;BME280;45100;46.926;7.452;2023-10-19T09:20:26;93529.70;;;13.73;100.00
59329;BME280;45100;46.926;7.452;2023-10-19T09:22:47;93527.57;;;13.86;100.00
59329;BME280;45100;46.926;7.452;2023-10-19T09:25:19;93520.74;;;14.03;100.00
59329;BME280;45100;46.926;7.452;2023-10-19T09:27:48;93515.52;;;14.20;100.00
59329;BME280;45100;46.926;7.452;2023-10-19T09:30:20;93519.00;;;14.32;100.00
59329;BME280;45100;46.926;7.452;2023-10-19T09:32:50;93516.35;;;14.40;100.00
59329;BME280;45100;46.926;7.452;2023-10-19T09:35:20;93510.14;;;14.45;100.00
59329;BME280;45100;46.926;7.452;2023-10-19T09:37:50;93510.04;;;14.48;100.00
59329;BME280;45100;46.926;7.452;2023-10-19T09:40:22;93504.55;;;14.52;100.00
59329;BME280;45100;46.926;7.452;2023-10-19T09:42:56;93500.39;;;14.54;100.00
59329;BME280;45100;46.926;7.452;2023-10-19T09:45:27;93500.41;;;14.51;100.00
59329;BME280;45100;46.926;7.452;2023-10-19T09:50:27;93491.44;;;14.33;99.73
59329;BME280;45100;46.926;7.452;2023-10-19T09:52:57;93490.27;;;14.25;100.00
59329;BME280;45100;46.926;7.452;2023-10-19T09:55:36;93482.20;;;14.20;100.00
59329;BME280;45100;46.926;7.452;2023-10-19T09:58:02;93480.36;;;14.22;100.00
59329;BME280;45100;46.926;7.452;2023-10-19T10:00:33;93477.23;;;14.25;100.00
59329;BME280;45100;46.926;7.452;2023-10-19T10:02:58;93473.14;;;14.28;100.00
59329;BME280;45100;46.926;7.452;2023-10-19T10:05:45;93472.48;;;14.33;100.00
59329;BME280;45100;46.926;7.452;2023-10-19T10:08:27;93474.98;;;14.35;100.00
59329;BME280;45100;46.926;7.452;2023-10-19T10:10:30;93471.45;;;14.36;100.00
59329;BME280;45100;46.926;7.452;2023-10-19T10:15:40;93465.72;;;14.32;100.00
59329;BME280;45100;46.926;7.452;2023-10-19T10:18:12;93456.00;;;14.28;100.00
59329;BME280;45100;46.926;7.452;2023-10-19T10:20:33;93459.64;;;14.23;100.00
59329;BME280;45100;46.926;7.452;2023-10-19T10:23:21;93466.93;;;14.18;100.00
59329;BME280;45100;46.926;7.452;2023-10-19T10:25:34;93465.68;;;14.15;100.00
59329;BME280;45100;46.926;7.452;2023-10-19T10:28:04;93447.20;;;14.09;100.00
59329;BME280;45100;46.926;7.452;2023-10-19T10:30:34;93451.05;;;14.05;100.00
59329;BME280;45100;46.926;7.452;2023-10-19T10:33:08;93452.62;;;14.05;100.00
59329;BME280;45100;46.926;7.452;2023-10-19T10:38:08;93448.74;;;14.17;100.00
59329;BME280;45100;46.926;7.452;2023-10-19T10:40:43;93447.41;;;14.29;100.00
59329;BME280;45100;46.926;7.452;2023-10-19T10:43:07;93438.38;;;14.41;100.00
59329;BME280;45100;46.926;7.452;2023-10-19T10:45:37;93428.99;;;14.53;100.00
59329;BME280;45100;46.926;7.452;2023-10-19T10:50:47;93439.33;;;14.78;100.00
59329;BME280;45100;46.926;7.452;2023-10-19T10:53:13;93422.73;;;14.93;100.00
59329;BME280;45100;46.926;7.452;2023-10-19T10:55:42;93423.52;;;15.11;100.00
59329;BME280;45100;46.926;7.452;2023-10-19T10:58:16;93431.67;;;15.29;100.00
59329;BME280;45100;46.926;7.452;2023-10-19T11:00:46;93428.80;;;15.43;100.00
59329;BME280;45100;46.926;7.452;2023-10-19T11:05:50;93423.13;;;15.53;99.54
59329;BME280;45100;46.926;7.452;2023-10-19T11:08:24;93424.31;;;15.54;99.62
59329;BME280;45100;46.926;7.452;2023-10-19T11:10:51;93428.00;;;15.56;99.78
59329;BME280;45100;46.926;7.452;2023-10-19T11:13:24;93420.17;;;15.58;99.63
59329;BME280;45100;46.926;7.452;2023-10-19T11:15:54;93414.42;;;15.57;99.87
59329;BME280;45100;46.926;7.452;2023-10-19T11:18:37;93418.23;;;15.58;99.76
59329;BME280;45100;46.926;7.452;2023-10-19T11:20:56;93417.80;;;15.56;99.80
59329;BME280;45100;46.926;7.452;2023-10-19T11:23:42;93417.45;;;15.52;99.51
59329;BME280;45100;46.926;7.452;2023-10-19T11:25:57;93411.71;;;15.47;99.46
59329;BME280;45100;46.926;7.452;2023-10-19T11:28:31;93411.44;;;15.42;99.41
59329;BME280;45100;46.926;7.452;2023-10-19T11:31:17;93414.47;;;15.43;99.79
59329;BME280;45100;46.926;7.452;2023-10-19T11:33:26;93412.25;;;15.45;100.00
59329;BME280;45100;46.926;7.452;2023-10-19T11:35:56;93411.11;;;15.47;100.00
59329;BME280;45100;46.926;7.452;2023-10-19T11:38:27;93418.42;;;15.48;99.56
59329;BME280;45100;46.926;7.452;2023-10-19T11:40:56;93415.77;;;15.45;96.97
59329;BME280;45100;46.926;7.452;2023-10-19T11:43:27;93412.80;;;15.42;96.18
59329;BME280;45100;46.926;7.452;2023-10-19T11:45:58;93406.36;;;15.38;95.53
59329;BME280;45100;46.926;7.452;2023-10-19T11:48:29;93415.59;;;15.36;96.13
59329;BME280;45100;46.926;7.452;2023-10-19T11:51:00;93398.73;;;15.35;97.11
59329;BME280;45100;46.926;7.452;2023-10-19T11:53:35;93397.09;;;15.35;96.75
59329;BME280;45100;46.926;7.452;2023-10-19T11:56:02;93392.42;;;15.36;97.35
59329;BME280;45100;46.926;7.452;2023-10-19T11:58:34;93380.05;;;15.39;98.22
59329;BME280;45100;46.926;7.452;2023-10-19T12:01:02;93364.78;;;15.45;98.81
59329;BME280;45100;46.926;7.452;2023-10-19T12:03:32;93364.81;;;15.51;97.31
59329;BME280;45100;46.926;7.452;2023-10-19T12:06:10;93359.83;;;15.58;96.38
59329;BME280;45100;46.926;7.452;2023-10-19T12:08:35;93354.94;;;15.69;95.28
59329;BME280;45100;46.926;7.452;2023-10-19T12:11:19;93347.14;;;15.82;95.05
59329;BME280;45100;46.926;7.452;2023-10-19T12:13:35;93343.38;;;15.96;92.95
59329;BME280;45100;46.926;7.452;2023-10-19T12:16:05;93334.28;;;16.01;91.82
59329;BME280;45100;46.926;7.452;2023-10-19T12:18:36;93328.88;;;16.04;91.43
59329;BME280;45100;46.926;7.452;2023-10-19T12:21:15;93323.97;;;16.07;91.14
59329;BME280;45100;46.926;7.452;2023-10-19T12:23:44;93332.47;;;16.09;91.86
59329;BME280;45100;46.926;7.452;2023-10-19T12:26:11;93337.80;;;16.10;92.21
59329;BME280;45100;46.926;7.452;2023-10-19T12:28:40;93328.14;;;16.10;91.60
59329;BME280;45100;46.926;7.452;2023-10-19T12:31:11;93329.16;;;16.10;91.99
59329;BME280;45100;46.926;7.452;2023-10-19T12:33:39;93333.31;;;16.12;92.49
59329;BME280;45100;46.926;7.452;2023-10-19T12:36:32;93331.51;;;16.15;93.16
59329;BME280;45100;46.926;7.452;2023-10-19T12:38:39;93323.11;;;16.18;93.63
59329;BME280;45100;46.926;7.452;2023-10-19T12:41:10;93327.56;;;16.20;92.87
59329;BME280;45100;46.926;7.452;2023-10-19T12:43:41;93326.95;;;16.21;93.15
59329;BME280;45100;46.926;7.452;2023-10-19T12:48:48;93290.25;;;16.26;92.70
59329;BME280;45100;46.926;7.452;2023-10-19T12:51:25;93279.11;;;16.33;92.87
59329;BME280;45100;46.926;7.452;2023-10-19T12:53:46;93273.55;;;16.41;92.83
59329;BME280;45100;46.926;7.452;2023-10-19T12:56:19;93272.86;;;16.51;93.25
59329;BME280;45100;46.926;7.452;2023-10-19T12:58:49;93271.77;;;16.58;92.77
59329;BME280;45100;46.926;7.452;2023-10-19T13:01:20;93272.98;;;16.62;91.89
59329;BME280;45100;46.926;7.452;2023-10-19T13:06:30;93266.05;;;16.63;91.76
59329;BME280;45100;46.926;7.452;2023-10-19T13:08:53;93252.47;;;16.63;91.83
59329;BME280;45100;46.926;7.452;2023-10-19T13:11:24;93240.12;;;16.63;92.29
59329;BME280;45100;46.926;7.452;2023-10-19T13:13:55;93233.41;;;16.66;92.89
59329;BME280;45100;46.926;7.452;2023-10-19T13:16:26;93224.18;;;16.67;92.15
59329;BME280;45100;46.926;7.452;2023-10-19T13:18:56;93226.80;;;16.65;91.05
59329;BME280;45100;46.926;7.452;2023-10-19T13:21:33;93219.81;;;16.61;91.18
59329;BME280;45100;46.926;7.452;2023-10-19T13:23:57;93212.95;;;16.58;90.50
59329;BME280;45100;46.926;7.452;2023-10-19T13:26:28;93209.43;;;16.57;90.67
59329;BME280;45100;46.926;7.452;2023-10-19T13:28:58;93203.67;;;16.61;91.06
59329;BME280;45100;46.926;7.452;2023-10-19T13:31:28;93201.88;;;16.67;91.38
59329;BME280;45100;46.926;7.452;2023-10-19T13:34:00;93199.61;;;16.70;91.83
59329;BME280;45100;46.926;7.452;2023-10-19T13:36:30;93202.98;;;16.70;91.72
59329;BME280;45100;46.926;7.452;2023-10-19T13:39:01;93196.30;;;16.66;91.79
59329;BME280;45100;46.926;7.452;2023-10-19T13:41:32;93193.42;;;16.60;92.26
59329;BME280;45100;46.926;7.452;2023-10-19T13:44:03;93185.68;;;16.53;92.69
59329;BME280;45100;46.926;7.452;2023-10-19T13:46:34;93165.14;;;16.48;93.03
59329;BME280;45100;46.926;7.452;2023-10-19T13:51:40;93149.12;;;16.38;94.01
59329;BME280;45100;46.926;7.452;2023-10-19T13:54:10;93146.51;;;16.34;94.44
59329;BME280;45100;46.926;7.452;2023-10-19T13:56:40;93139.87;;;16.26;94.86
59329;BME280;45100;46.926;7.452;2023-10-19T14:01:46;93133.89;;;16.09;95.80
59329;BME280;45100;46.926;7.452;2023-10-19T14:04:16;93131.58;;;16.02;96.56
59329;BME280;45100;46.926;7.452;2023-10-19T14:09:28;93131.27;;;15.90;98.43
59329;BME280;45100;46.926;7.452;2023-10-19T14:11:55;93126.58;;;15.85;99.59
59329;BME280;45100;46.926;7.452;2023-10-19T14:14:26;93123.92;;;15.81;100.00
59329;BME280;45100;46.926;7.452;2023-10-19T14:16:59;93117.86;;;15.78;100.00